sensor_id;sensor_type;location;lat;lon;timestamp;P1;durP1;ratioP1;P2;durP2;ratioP2
46090;SDS011;31826;53.572;10.170;2023-09-18T00:00:48;8.82;;;3.70;;
46090;SDS011;31826;53.572;10.170;2023-09-18T00:03:20;7.97;;;3.90;;
46090;SDS011;31826;53.572;10.170;2023-09-18T00:05:49;7.22;;;3.80;;
46090;SDS011;31826;53.572;10.170;2023-09-18T00:08:15;7.93;;;3.83;;
46090;SDS011;31826;53.572;10.170;2023-09-18T00:10:42;6.90;;;3.72;;
46090;SDS011;31826;53.572;10.170;2023-09-18T00:13:12;8.15;;;3.97;;
46090;SDS011;31826;53.572;10.170;2023-09-18T00:15:37;8.00;;;4.00;;
46090;SDS011;31826;53.572;10.170;2023-09-18T00:18:03;7.05;;;3.88;;
46090;SDS011;31826;53.572;10.170;2023-09-18T00:20:30;7.40;;;3.67;;
46090;SDS011;31826;53.572;10.170;2023-09-18T00:22:55;9.05;;;4.07;;
46090;SDS011;31826;53.572;10.170;2023-09-18T00:25:22;7.70;;;4.05;;
46090;SDS011;31826;53.572;10.170;2023-09-18T00:27:48;7.22;;;3.88;;
46090;SDS011;31826;53.572;10.170;2023-09-18T00:30:14;8.00;;;4.03;;
46090;SDS011;31826;53.572;10.170;2023-09-18T00:32:39;7.72;;;4.03;;
46090;SDS011;31826;53.572;10.170;2023-09-18T00:35:05;9.90;;;4.03;;
46090;SDS011;31826;53.572;10.170;2023-09-18T00:37:31;9.70;;;4.05;;
46090;SDS011;31826;53.572;10.170;2023-09-18T00:39:57;8.02;;;4.30;;
46090;SDS011;31826;53.572;10.170;2023-09-18T00:42:23;7.55;;;4.03;;
46090;SDS011;31826;53.572;10.170;2023-09-18T00:44:49;7.72;;;4.70;;
46090;SDS011;31826;53.572;10.170;2023-09-18T00:47:15;8.00;;;3.95;;
46090;SDS011;31826;53.572;10.170;2023-09-18T00:49:43;7.47;;;4.15;;
46090;SDS011;31826;53.572;10.170;2023-09-18T00:52:12;8.33;;;4.37;;
46090;SDS011;31826;53.572;10.170;2023-09-18T00:54:39;7.95;;;4.35;;
46090;SDS011;31826;53.572;10.170;2023-09-18T00:57:07;7.65;;;3.97;;
46090;SDS011;31826;53.572;10.170;2023-09-18T00:59:34;8.60;;;4.03;;
46090;SDS011;31826;53.572;10.170;2023-09-18T01:01:59;7.17;;;4.07;;
46090;SDS011;31826;53.572;10.170;2023-09-18T01:04:26;7.43;;;4.13;;
46090;SDS011;31826;53.572;10.170;2023-09-18T01:06:53;7.05;;;3.78;;
46090;SDS011;31826;53.572;10.170;2023-09-18T01:09:21;9.85;;;4.25;;
46090;SDS011;31826;53.572;10.170;2023-09-18T01:11:50;9.10;;;4.30;;
46090;SDS011;31826;53.572;10.170;2023-09-18T01:17:04;7.97;;;4.18;;
46090;SDS011;31826;53.572;10.170;2023-09-18T01:19:40;6.55;;;3.70;;
46090;SDS011;31826;53.572;10.170;2023-09-18T01:22:11;7.53;;;4.00;;
46090;SDS011;31826;53.572;10.170;2023-09-18T01:24:41;7.93;;;4.30;;
46090;SDS011;31826;53.572;10.170;2023-09-18T01:27:08;8.75;;;4.63;;
46090;SDS011;31826;53.572;10.170;2023-09-18T01:29:37;11.63;;;4.47;;
46090;SDS011;31826;53.572;10.170;2023-09-18T01:32:04;9.05;;;4.30;;
46090;SDS011;31826;53.572;10.170;2023-09-18T01:34:33;7.57;;;3.95;;
46090;SDS011;31826;53.572;10.170;2023-09-18T01:37:02;12.00;;;4.43;;
46090;SDS011;31826;53.572;10.170;2023-09-18T01:39:31;8.07;;;4.18;;
46090;SDS011;31826;53.572;10.170;2023-09-18T01:41:59;8.40;;;4.60;;
46090;SDS011;31826;53.572;10.170;2023-09-18T01:44:26;8.25;;;4.43;;
46090;SDS011;31826;53.572;10.170;2023-09-18T01:46:52;7.57;;;4.10;;
46090;SDS011;31826;53.572;10.170;2023-09-18T01:49:31;8.52;;;4.15;;
46090;SDS011;31826;53.572;10.170;2023-09-18T01:51:58;7.28;;;4.00;;
46090;SDS011;31826;53.572;10.170;2023-09-18T01:54:24;8.48;;;4.32;;
46090;SDS011;31826;53.572;10.170;2023-09-18T01:56:51;8.68;;;4.38;;
46090;SDS011;31826;53.572;10.170;2023-09-18T01:59:18;7.35;;;3.88;;
46090;SDS011;31826;53.572;10.170;2023-09-18T02:01:44;7.43;;;4.15;;
46090;SDS011;31826;53.572;10.170;2023-09-18T02:04:11;7.47;;;4.10;;
46090;SDS011;31826;53.572;10.170;2023-09-18T02:06:36;7.47;;;3.83;;
46090;SDS011;31826;53.572;10.170;2023-09-18T02:09:02;7.97;;;3.80;;
46090;SDS011;31826;53.572;10.170;2023-09-18T02:11:28;8.15;;;4.35;;
46090;SDS011;31826;53.572;10.170;2023-09-18T02:13:54;9.00;;;4.43;;
46090;SDS011;31826;53.572;10.170;2023-09-18T02:16:21;8.20;;;4.22;;
46090;SDS011;31826;53.572;10.170;2023-09-18T02:18:47;7.27;;;4.20;;
46090;SDS011;31826;53.572;10.170;2023-09-18T02:21:21;7.50;;;3.93;;
46090;SDS011;31826;53.572;10.170;2023-09-18T02:23:49;8.05;;;4.20;;
46090;SDS011;31826;53.572;10.170;2023-09-18T02:26:16;7.20;;;3.80;;
46090;SDS011;31826;53.572;10.170;2023-09-18T02:28:45;8.18;;;4.25;;
46090;SDS011;31826;53.572;10.170;2023-09-18T02:31:11;7.38;;;4.15;;
46090;SDS011;31826;53.572;10.170;2023-09-18T02:33:39;8.60;;;4.63;;
46090;SDS011;31826;53.572;10.170;2023-09-18T02:36:06;9.55;;;4.30;;
46090;SDS011;31826;53.572;10.170;2023-09-18T02:38:32;8.50;;;4.30;;
46090;SDS011;31826;53.572;10.170;2023-09-18T02:40:58;8.30;;;4.03;;
46090;SDS011;31826;53.572;10.170;2023-09-18T02:43:24;9.23;;;4.53;;
46090;SDS011;31826;53.572;10.170;2023-09-18T02:45:50;10.10;;;4.32;;
46090;SDS011;31826;53.572;10.170;2023-09-18T02:48:17;9.15;;;4.40;;
46090;SDS011;31826;53.572;10.170;2023-09-18T02:50:43;7.95;;;4.10;;
46090;SDS011;31826;53.572;10.170;2023-09-18T02:53:19;10.65;;;4.55;;
46090;SDS011;31826;53.572;10.170;2023-09-18T02:55:47;8.63;;;4.68;;
46090;SDS011;31826;53.572;10.170;2023-09-18T02:58:15;7.83;;;4.07;;
46090;SDS011;31826;53.572;10.170;2023-09-18T03:00:41;8.33;;;4.17;;
46090;SDS011;31826;53.572;10.170;2023-09-18T03:03:08;8.80;;;4.80;;
46090;SDS011;31826;53.572;10.170;2023-09-18T03:05:34;8.40;;;4.25;;
46090;SDS011;31826;53.572;10.170;2023-09-18T03:07:59;9.23;;;4.22;;
46090;SDS011;31826;53.572;10.170;2023-09-18T03:10:25;8.10;;;4.30;;
46090;SDS011;31826;53.572;10.170;2023-09-18T03:12:51;9.32;;;4.55;;
46090;SDS011;31826;53.572;10.170;2023-09-18T03:15:17;9.03;;;4.77;;
46090;SDS011;31826;53.572;10.170;2023-09-18T03:17:43;8.03;;;4.13;;
46090;SDS011;31826;53.572;10.170;2023-09-18T03:20:09;7.57;;;4.30;;
46090;SDS011;31826;53.572;10.170;2023-09-18T03:22:35;10.43;;;4.15;;
46090;SDS011;31826;53.572;10.170;2023-09-18T03:25:00;7.25;;;4.03;;
46090;SDS011;31826;53.572;10.170;2023-09-18T03:27:27;8.00;;;4.15;;
46090;SDS011;31826;53.572;10.170;2023-09-18T03:29:57;9.27;;;4.28;;
46090;SDS011;31826;53.572;10.170;2023-09-18T03:32:23;7.95;;;4.43;;
46090;SDS011;31826;53.572;10.170;2023-09-18T03:34:52;8.27;;;4.37;;
46090;SDS011;31826;53.572;10.170;2023-09-18T03:37:18;9.40;;;4.93;;
46090;SDS011;31826;53.572;10.170;2023-09-18T03:39:44;9.93;;;4.70;;
46090;SDS011;31826;53.572;10.170;2023-09-18T03:42:10;8.18;;;4.40;;
46090;SDS011;31826;53.572;10.170;2023-09-18T03:44:36;8.27;;;4.50;;
46090;SDS011;31826;53.572;10.170;2023-09-18T03:47:02;8.85;;;4.20;;
46090;SDS011;31826;53.572;10.170;2023-09-18T03:49:28;8.52;;;4.03;;
46090;SDS011;31826;53.572;10.170;2023-09-18T03:51:54;11.17;;;4.90;;
46090;SDS011;31826;53.572;10.170;2023-09-18T03:54:20;9.47;;;4.67;;
46090;SDS011;31826;53.572;10.170;2023-09-18T03:56:46;9.23;;;4.47;;
46090;SDS011;31826;53.572;10.170;2023-09-18T03:59:12;8.75;;;4.70;;
46090;SDS011;31826;53.572;10.170;2023-09-18T04:01:38;10.18;;;4.90;;
46090;SDS011;31826;53.572;10.170;2023-09-18T04:04:04;11.02;;;4.72;;
46090;SDS011;31826;53.572;10.170;2023-09-18T04:06:37;10.57;;;4.50;;
46090;SDS011;31826;53.572;10.170;2023-09-18T04:09:05;10.13;;;4.93;;
46090;SDS011;31826;53.572;10.170;2023-09-18T04:11:31;9.23;;;4.93;;
46090;SDS011;31826;53.572;10.170;2023-09-18T04:13:57;8.57;;;4.90;;
46090;SDS011;31826;53.572;10.170;2023-09-18T04:16:24;7.83;;;4.63;;
46090;SDS011;31826;53.572;10.170;2023-09-18T04:18:51;9.25;;;4.57;;
46090;SDS011;31826;53.572;10.170;2023-09-18T04:21:17;9.73;;;4.60;;
46090;SDS011;31826;53.572;10.170;2023-09-18T04:23:42;10.10;;;4.87;;
46090;SDS011;31826;53.572;10.170;2023-09-18T04:26:08;9.55;;;5.03;;
46090;SDS011;31826;53.572;10.170;2023-09-18T04:28:34;9.57;;;4.85;;
46090;SDS011;31826;53.572;10.170;2023-09-18T04:30:59;8.82;;;5.05;;
46090;SDS011;31826;53.572;10.170;2023-09-18T04:33:25;9.37;;;5.00;;
46090;SDS011;31826;53.572;10.170;2023-09-18T04:35:53;8.60;;;4.72;;
46090;SDS011;31826;53.572;10.170;2023-09-18T04:38:19;7.70;;;4.20;;
46090;SDS011;31826;53.572;10.170;2023-09-18T04:40:45;10.53;;;4.80;;
46090;SDS011;31826;53.572;10.170;2023-09-18T04:43:11;8.67;;;4.67;;
46090;SDS011;31826;53.572;10.170;2023-09-18T04:45:36;10.75;;;4.93;;
46090;SDS011;31826;53.572;10.170;2023-09-18T04:48:02;8.97;;;4.63;;
46090;SDS011;31826;53.572;10.170;2023-09-18T04:50:30;8.67;;;5.13;;
46090;SDS011;31826;53.572;10.170;2023-09-18T04:52:58;10.00;;;5.20;;
46090;SDS011;31826;53.572;10.170;2023-09-18T04:55:24;7.85;;;4.70;;
46090;SDS011;31826;53.572;10.170;2023-09-18T04:57:50;9.43;;;5.35;;
46090;SDS011;31826;53.572;10.170;2023-09-18T05:00:16;8.97;;;4.83;;
46090;SDS011;31826;53.572;10.170;2023-09-18T05:02:42;10.60;;;5.40;;
46090;SDS011;31826;53.572;10.170;2023-09-18T05:05:08;10.95;;;5.45;;
46090;SDS011;31826;53.572;10.170;2023-09-18T05:07:34;10.35;;;5.07;;
46090;SDS011;31826;53.572;10.170;2023-09-18T05:10:00;9.45;;;4.75;;
46090;SDS011;31826;53.572;10.170;2023-09-18T05:12:25;9.05;;;4.93;;
46090;SDS011;31826;53.572;10.170;2023-09-18T05:14:51;10.37;;;4.93;;
46090;SDS011;31826;53.572;10.170;2023-09-18T05:17:17;11.07;;;4.83;;
46090;SDS011;31826;53.572;10.170;2023-09-18T05:19:43;8.63;;;4.93;;
46090;SDS011;31826;53.572;10.170;2023-09-18T05:22:09;9.77;;;4.90;;
46090;SDS011;31826;53.572;10.170;2023-09-18T05:24:39;8.90;;;5.00;;
46090;SDS011;31826;53.572;10.170;2023-09-18T05:27:05;10.90;;;5.07;;
46090;SDS011;31826;53.572;10.170;2023-09-18T05:29:32;11.80;;;5.20;;
46090;SDS011;31826;53.572;10.170;2023-09-18T05:31:58;12.15;;;5.47;;
46090;SDS011;31826;53.572;10.170;2023-09-18T05:34:23;9.57;;;4.90;;
46090;SDS011;31826;53.572;10.170;2023-09-18T05:36:49;9.43;;;4.82;;
46090;SDS011;31826;53.572;10.170;2023-09-18T05:39:15;7.68;;;4.45;;
46090;SDS011;31826;53.572;10.170;2023-09-18T05:41:42;10.52;;;5.20;;
46090;SDS011;31826;53.572;10.170;2023-09-18T05:44:07;8.65;;;4.40;;
46090;SDS011;31826;53.572;10.170;2023-09-18T05:46:34;9.30;;;4.93;;
46090;SDS011;31826;53.572;10.170;2023-09-18T05:49:01;11.98;;;5.07;;
46090;SDS011;31826;53.572;10.170;2023-09-18T05:51:30;9.77;;;5.18;;
46090;SDS011;31826;53.572;10.170;2023-09-18T05:53:57;9.38;;;5.03;;
46090;SDS011;31826;53.572;10.170;2023-09-18T05:56:23;10.50;;;5.13;;
46090;SDS011;31826;53.572;10.170;2023-09-18T05:58:49;9.73;;;4.97;;
46090;SDS011;31826;53.572;10.170;2023-09-18T06:01:15;9.93;;;4.77;;
46090;SDS011;31826;53.572;10.170;2023-09-18T06:03:40;10.02;;;4.93;;
46090;SDS011;31826;53.572;10.170;2023-09-18T06:06:06;9.52;;;4.75;;
46090;SDS011;31826;53.572;10.170;2023-09-18T06:08:33;9.43;;;4.88;;
46090;SDS011;31826;53.572;10.170;2023-09-18T06:10:59;10.25;;;5.10;;
46090;SDS011;31826;53.572;10.170;2023-09-18T06:13:25;9.52;;;4.70;;
46090;SDS011;31826;53.572;10.170;2023-09-18T06:15:53;10.20;;;5.05;;
46090;SDS011;31826;53.572;10.170;2023-09-18T06:18:20;8.93;;;5.10;;
46090;SDS011;31826;53.572;10.170;2023-09-18T06:20:49;11.13;;;5.22;;
46090;SDS011;31826;53.572;10.170;2023-09-18T06:23:15;8.23;;;4.60;;
46090;SDS011;31826;53.572;10.170;2023-09-18T06:25:41;9.90;;;4.60;;
46090;SDS011;31826;53.572;10.170;2023-09-18T06:28:07;8.55;;;4.50;;
46090;SDS011;31826;53.572;10.170;2023-09-18T06:30:32;8.73;;;4.50;;
46090;SDS011;31826;53.572;10.170;2023-09-18T06:32:59;8.63;;;4.70;;
46090;SDS011;31826;53.572;10.170;2023-09-18T06:35:26;8.45;;;4.70;;
46090;SDS011;31826;53.572;10.170;2023-09-18T06:37:52;8.45;;;4.50;;
46090;SDS011;31826;53.572;10.170;2023-09-18T06:40:19;8.38;;;4.53;;
46090;SDS011;31826;53.572;10.170;2023-09-18T06:42:45;9.30;;;4.63;;
46090;SDS011;31826;53.572;10.170;2023-09-18T06:45:11;8.73;;;4.70;;
46090;SDS011;31826;53.572;10.170;2023-09-18T06:47:38;8.40;;;4.60;;
46090;SDS011;31826;53.572;10.170;2023-09-18T06:50:06;8.23;;;4.33;;
46090;SDS011;31826;53.572;10.170;2023-09-18T06:52:31;8.40;;;4.57;;
46090;SDS011;31826;53.572;10.170;2023-09-18T06:54:57;9.70;;;4.90;;
46090;SDS011;31826;53.572;10.170;2023-09-18T06:57:23;8.47;;;4.60;;
46090;SDS011;31826;53.572;10.170;2023-09-18T06:59:49;8.60;;;4.43;;
46090;SDS011;31826;53.572;10.170;2023-09-18T07:02:15;9.63;;;4.70;;
46090;SDS011;31826;53.572;10.170;2023-09-18T07:04:41;8.40;;;4.57;;
46090;SDS011;31826;53.572;10.170;2023-09-18T07:07:13;8.98;;;4.95;;
46090;SDS011;31826;53.572;10.170;2023-09-18T07:09:40;7.97;;;4.20;;
46090;SDS011;31826;53.572;10.170;2023-09-18T07:12:07;10.20;;;4.80;;
46090;SDS011;31826;53.572;10.170;2023-09-18T07:14:36;10.13;;;5.18;;
46090;SDS011;31826;53.572;10.170;2023-09-18T07:17:03;8.68;;;4.47;;
46090;SDS011;31826;53.572;10.170;2023-09-18T07:19:29;10.40;;;4.97;;
46090;SDS011;31826;53.572;10.170;2023-09-18T07:21:55;8.37;;;4.40;;
46090;SDS011;31826;53.572;10.170;2023-09-18T07:24:20;10.10;;;4.53;;
46090;SDS011;31826;53.572;10.170;2023-09-18T07:26:47;9.88;;;4.60;;
46090;SDS011;31826;53.572;10.170;2023-09-18T07:29:13;7.75;;;4.20;;
46090;SDS011;31826;53.572;10.170;2023-09-18T07:31:40;7.93;;;4.30;;
46090;SDS011;31826;53.572;10.170;2023-09-18T07:34:09;7.70;;;4.25;;
46090;SDS011;31826;53.572;10.170;2023-09-18T07:36:35;7.10;;;4.03;;
46090;SDS011;31826;53.572;10.170;2023-09-18T07:39:01;7.25;;;3.92;;
46090;SDS011;31826;53.572;10.170;2023-09-18T07:41:29;7.70;;;4.03;;
46090;SDS011;31826;53.572;10.170;2023-09-18T07:43:56;7.40;;;3.97;;
46090;SDS011;31826;53.572;10.170;2023-09-18T07:46:23;7.70;;;4.03;;
46090;SDS011;31826;53.572;10.170;2023-09-18T07:48:49;7.17;;;4.17;;
46090;SDS011;31826;53.572;10.170;2023-09-18T07:51:14;9.75;;;4.45;;
46090;SDS011;31826;53.572;10.170;2023-09-18T07:53:41;10.13;;;4.00;;
46090;SDS011;31826;53.572;10.170;2023-09-18T07:56:07;8.07;;;4.30;;
46090;SDS011;31826;53.572;10.170;2023-09-18T07:58:33;8.90;;;4.05;;
46090;SDS011;31826;53.572;10.170;2023-09-18T08:01:03;7.78;;;3.58;;
46090;SDS011;31826;53.572;10.170;2023-09-18T08:03:33;8.23;;;3.83;;
46090;SDS011;31826;53.572;10.170;2023-09-18T08:05:59;7.10;;;3.90;;
46090;SDS011;31826;53.572;10.170;2023-09-18T08:08:25;6.82;;;3.60;;
46090;SDS011;31826;53.572;10.170;2023-09-18T08:10:51;7.25;;;3.63;;
46090;SDS011;31826;53.572;10.170;2023-09-18T08:13:17;8.20;;;4.30;;
46090;SDS011;31826;53.572;10.170;2023-09-18T08:15:44;9.25;;;3.70;;
46090;SDS011;31826;53.572;10.170;2023-09-18T08:18:11;6.85;;;3.75;;
46090;SDS011;31826;53.572;10.170;2023-09-18T08:20:44;6.80;;;3.65;;
46090;SDS011;31826;53.572;10.170;2023-09-18T08:23:10;6.63;;;3.65;;
46090;SDS011;31826;53.572;10.170;2023-09-18T08:25:37;7.40;;;3.50;;
46090;SDS011;31826;53.572;10.170;2023-09-18T08:28:03;6.40;;;3.10;;
46090;SDS011;31826;53.572;10.170;2023-09-18T08:30:29;6.95;;;4.00;;
46090;SDS011;31826;53.572;10.170;2023-09-18T08:32:55;5.82;;;3.40;;
46090;SDS011;31826;53.572;10.170;2023-09-18T08:35:21;7.95;;;3.50;;
46090;SDS011;31826;53.572;10.170;2023-09-18T08:37:47;6.37;;;3.40;;
46090;SDS011;31826;53.572;10.170;2023-09-18T08:40:13;6.20;;;3.40;;
46090;SDS011;31826;53.572;10.170;2023-09-18T08:42:44;6.63;;;3.20;;
46090;SDS011;31826;53.572;10.170;2023-09-18T08:45:12;5.88;;;3.33;;
46090;SDS011;31826;53.572;10.170;2023-09-18T08:47:46;6.45;;;3.40;;
46090;SDS011;31826;53.572;10.170;2023-09-18T08:50:12;7.30;;;3.33;;
46090;SDS011;31826;53.572;10.170;2023-09-18T08:52:40;8.90;;;3.72;;
46090;SDS011;31826;53.572;10.170;2023-09-18T08:55:06;9.43;;;4.43;;
46090;SDS011;31826;53.572;10.170;2023-09-18T08:57:33;7.07;;;3.30;;
46090;SDS011;31826;53.572;10.170;2023-09-18T09:00:01;8.05;;;3.58;;
46090;SDS011;31826;53.572;10.170;2023-09-18T09:02:32;7.03;;;3.90;;
46090;SDS011;31826;53.572;10.170;2023-09-18T09:04:58;6.63;;;3.70;;
46090;SDS011;31826;53.572;10.170;2023-09-18T09:07:25;6.90;;;3.93;;
46090;SDS011;31826;53.572;10.170;2023-09-18T09:09:51;8.83;;;3.90;;
46090;SDS011;31826;53.572;10.170;2023-09-18T09:12:39;6.83;;;4.07;;
46090;SDS011;31826;53.572;10.170;2023-09-18T09:15:13;6.57;;;3.72;;
46090;SDS011;31826;53.572;10.170;2023-09-18T09:17:40;6.83;;;3.60;;
46090;SDS011;31826;53.572;10.170;2023-09-18T09:20:13;7.73;;;3.60;;
46090;SDS011;31826;53.572;10.170;2023-09-18T09:22:40;6.97;;;3.40;;
46090;SDS011;31826;53.572;10.170;2023-09-18T09:25:28;8.00;;;3.58;;
46090;SDS011;31826;53.572;10.170;2023-09-18T09:27:56;6.55;;;3.80;;
46090;SDS011;31826;53.572;10.170;2023-09-18T09:30:26;7.55;;;3.40;;
46090;SDS011;31826;53.572;10.170;2023-09-18T09:32:54;6.43;;;3.50;;
46090;SDS011;31826;53.572;10.170;2023-09-18T09:35:34;7.43;;;3.60;;
46090;SDS011;31826;53.572;10.170;2023-09-18T09:40:34;6.60;;;3.42;;
46090;SDS011;31826;53.572;10.170;2023-09-18T09:43:00;6.15;;;3.45;;
46090;SDS011;31826;53.572;10.170;2023-09-18T09:45:28;8.65;;;3.38;;
46090;SDS011;31826;53.572;10.170;2023-09-18T09:47:55;7.10;;;3.72;;
46090;SDS011;31826;53.572;10.170;2023-09-18T09:50:22;7.47;;;3.35;;
46090;SDS011;31826;53.572;10.170;2023-09-18T09:52:50;7.65;;;3.22;;
46090;SDS011;31826;53.572;10.170;2023-09-18T09:55:28;5.53;;;3.22;;
46090;SDS011;31826;53.572;10.170;2023-09-18T09:57:59;8.13;;;3.55;;
46090;SDS011;31826;53.572;10.170;2023-09-18T10:00:28;8.93;;;3.72;;
46090;SDS011;31826;53.572;10.170;2023-09-18T10:02:58;10.18;;;3.53;;
46090;SDS011;31826;53.572;10.170;2023-09-18T10:05:26;7.93;;;3.10;;
46090;SDS011;31826;53.572;10.170;2023-09-18T10:07:59;7.38;;;3.50;;
46090;SDS011;31826;53.572;10.170;2023-09-18T10:10:29;6.97;;;3.40;;
46090;SDS011;31826;53.572;10.170;2023-09-18T10:13:02;8.73;;;3.57;;
46090;SDS011;31826;53.572;10.170;2023-09-18T10:15:33;7.28;;;3.20;;
46090;SDS011;31826;53.572;10.170;2023-09-18T10:18:04;7.05;;;3.50;;
46090;SDS011;31826;53.572;10.170;2023-09-18T10:20:36;9.25;;;3.58;;
46090;SDS011;31826;53.572;10.170;2023-09-18T10:23:09;5.55;;;3.10;;
46090;SDS011;31826;53.572;10.170;2023-09-18T10:25:48;7.73;;;3.30;;
46090;SDS011;31826;53.572;10.170;2023-09-18T10:28:16;9.13;;;3.30;;
46090;SDS011;31826;53.572;10.170;2023-09-18T10:30:42;7.40;;;3.40;;
46090;SDS011;31826;53.572;10.170;2023-09-18T10:33:09;8.80;;;3.15;;
46090;SDS011;31826;53.572;10.170;2023-09-18T10:35:35;6.47;;;3.07;;
46090;SDS011;31826;53.572;10.170;2023-09-18T10:38:02;6.27;;;3.30;;
46090;SDS011;31826;53.572;10.170;2023-09-18T10:40:30;6.57;;;3.42;;
46090;SDS011;31826;53.572;10.170;2023-09-18T10:42:58;6.97;;;3.28;;
46090;SDS011;31826;53.572;10.170;2023-09-18T10:45:27;7.05;;;3.33;;
46090;SDS011;31826;53.572;10.170;2023-09-18T10:47:53;7.97;;;3.08;;
46090;SDS011;31826;53.572;10.170;2023-09-18T10:50:23;7.70;;;3.60;;
46090;SDS011;31826;53.572;10.170;2023-09-18T10:52:52;9.57;;;3.30;;
46090;SDS011;31826;53.572;10.170;2023-09-18T10:55:18;6.77;;;3.20;;
46090;SDS011;31826;53.572;10.170;2023-09-18T10:57:49;6.53;;;3.08;;
46090;SDS011;31826;53.572;10.170;2023-09-18T11:00:17;7.95;;;3.42;;
46090;SDS011;31826;53.572;10.170;2023-09-18T11:02:48;6.50;;;3.22;;
46090;SDS011;31826;53.572;10.170;2023-09-18T11:05:26;6.23;;;3.43;;
46090;SDS011;31826;53.572;10.170;2023-09-18T11:10:57;6.68;;;3.30;;
46090;SDS011;31826;53.572;10.170;2023-09-18T11:13:45;7.72;;;3.15;;
46090;SDS011;31826;53.572;10.170;2023-09-18T11:21:25;7.75;;;3.20;;
46090;SDS011;31826;53.572;10.170;2023-09-18T11:24:02;7.32;;;3.47;;
46090;SDS011;31826;53.572;10.170;2023-09-18T11:26:34;8.15;;;3.30;;
46090;SDS011;31826;53.572;10.170;2023-09-18T11:29:03;8.57;;;3.97;;
46090;SDS011;31826;53.572;10.170;2023-09-18T11:34:13;7.90;;;3.17;;
46090;SDS011;31826;53.572;10.170;2023-09-18T11:36:46;5.47;;;3.13;;
46090;SDS011;31826;53.572;10.170;2023-09-18T11:39:12;8.07;;;3.53;;
46090;SDS011;31826;53.572;10.170;2023-09-18T11:41:39;6.40;;;2.93;;
46090;SDS011;31826;53.572;10.170;2023-09-18T11:46:39;8.33;;;3.53;;
46090;SDS011;31826;53.572;10.170;2023-09-18T11:49:13;6.38;;;3.22;;
46090;SDS011;31826;53.572;10.170;2023-09-18T11:51:39;7.68;;;2.90;;
46090;SDS011;31826;53.572;10.170;2023-09-18T11:54:05;7.80;;;3.35;;
46090;SDS011;31826;53.572;10.170;2023-09-18T11:56:33;8.77;;;3.30;;
46090;SDS011;31826;53.572;10.170;2023-09-18T11:58:59;7.45;;;3.05;;
46090;SDS011;31826;53.572;10.170;2023-09-18T12:01:29;7.18;;;2.70;;
46090;SDS011;31826;53.572;10.170;2023-09-18T12:04:02;8.10;;;2.70;;
46090;SDS011;31826;53.572;10.170;2023-09-18T12:06:40;7.65;;;2.70;;
46090;SDS011;31826;53.572;10.170;2023-09-18T12:09:07;6.28;;;2.38;;
46090;SDS011;31826;53.572;10.170;2023-09-18T12:11:33;6.32;;;2.58;;
46090;SDS011;31826;53.572;10.170;2023-09-18T12:14:04;5.72;;;2.80;;
46090;SDS011;31826;53.572;10.170;2023-09-18T12:16:30;8.03;;;2.80;;
46090;SDS011;31826;53.572;10.170;2023-09-18T12:19:03;4.93;;;2.33;;
46090;SDS011;31826;53.572;10.170;2023-09-18T12:21:31;5.00;;;2.40;;
46090;SDS011;31826;53.572;10.170;2023-09-18T12:23:57;6.03;;;2.43;;
46090;SDS011;31826;53.572;10.170;2023-09-18T12:26:22;8.23;;;2.88;;
46090;SDS011;31826;53.572;10.170;2023-09-18T12:28:51;7.90;;;2.72;;
46090;SDS011;31826;53.572;10.170;2023-09-18T12:31:16;7.53;;;2.35;;
46090;SDS011;31826;53.572;10.170;2023-09-18T12:33:42;5.72;;;1.90;;
46090;SDS011;31826;53.572;10.170;2023-09-18T12:36:09;4.93;;;2.10;;
46090;SDS011;31826;53.572;10.170;2023-09-18T12:38:35;6.78;;;2.47;;
46090;SDS011;31826;53.572;10.170;2023-09-18T12:41:02;4.63;;;2.00;;
46090;SDS011;31826;53.572;10.170;2023-09-18T12:43:33;6.68;;;2.17;;
46090;SDS011;31826;53.572;10.170;2023-09-18T12:46:04;5.07;;;2.10;;
46090;SDS011;31826;53.572;10.170;2023-09-18T12:48:31;5.20;;;2.20;;
46090;SDS011;31826;53.572;10.170;2023-09-18T12:51:04;7.57;;;1.98;;
46090;SDS011;31826;53.572;10.170;2023-09-18T12:53:30;6.95;;;2.15;;
46090;SDS011;31826;53.572;10.170;2023-09-18T12:56:10;7.07;;;2.20;;
46090;SDS011;31826;53.572;10.170;2023-09-18T12:58:39;5.68;;;2.50;;
46090;SDS011;31826;53.572;10.170;2023-09-18T13:01:07;5.82;;;2.25;;
46090;SDS011;31826;53.572;10.170;2023-09-18T13:03:35;5.75;;;2.33;;
46090;SDS011;31826;53.572;10.170;2023-09-18T13:06:07;7.68;;;2.08;;
46090;SDS011;31826;53.572;10.170;2023-09-18T13:08:33;5.32;;;1.90;;
46090;SDS011;31826;53.572;10.170;2023-09-18T13:11:00;5.07;;;1.90;;
46090;SDS011;31826;53.572;10.170;2023-09-18T13:13:28;6.25;;;2.80;;
46090;SDS011;31826;53.572;10.170;2023-09-18T13:15:57;8.40;;;2.05;;
46090;SDS011;31826;53.572;10.170;2023-09-18T13:18:24;7.22;;;2.10;;
46090;SDS011;31826;53.572;10.170;2023-09-18T13:20:51;4.38;;;1.80;;
46090;SDS011;31826;53.572;10.170;2023-09-18T13:23:17;4.80;;;1.90;;
46090;SDS011;31826;53.572;10.170;2023-09-18T13:25:43;4.07;;;1.70;;
46090;SDS011;31826;53.572;10.170;2023-09-18T13:28:11;4.97;;;2.10;;
46090;SDS011;31826;53.572;10.170;2023-09-18T13:30:38;7.00;;;1.87;;
46090;SDS011;31826;53.572;10.170;2023-09-18T13:33:12;5.45;;;2.00;;
46090;SDS011;31826;53.572;10.170;2023-09-18T13:35:41;6.35;;;1.77;;
46090;SDS011;31826;53.572;10.170;2023-09-18T13:38:09;5.97;;;1.92;;
46090;SDS011;31826;53.572;10.170;2023-09-18T13:40:42;5.50;;;2.05;;
46090;SDS011;31826;53.572;10.170;2023-09-18T13:43:09;4.80;;;1.73;;
46090;SDS011;31826;53.572;10.170;2023-09-18T13:45:36;4.53;;;1.90;;
46090;SDS011;31826;53.572;10.170;2023-09-18T13:48:05;4.50;;;1.73;;
46090;SDS011;31826;53.572;10.170;2023-09-18T13:50:31;4.35;;;1.80;;
46090;SDS011;31826;53.572;10.170;2023-09-18T13:52:58;4.87;;;2.00;;
46090;SDS011;31826;53.572;10.170;2023-09-18T13:55:24;7.00;;;2.05;;
46090;SDS011;31826;53.572;10.170;2023-09-18T13:57:50;5.75;;;2.08;;
46090;SDS011;31826;53.572;10.170;2023-09-18T14:00:16;4.57;;;2.00;;
46090;SDS011;31826;53.572;10.170;2023-09-18T14:02:42;5.43;;;1.90;;
46090;SDS011;31826;53.572;10.170;2023-09-18T14:05:08;7.70;;;2.08;;
46090;SDS011;31826;53.572;10.170;2023-09-18T14:07:36;4.95;;;1.80;;
46090;SDS011;31826;53.572;10.170;2023-09-18T14:10:08;8.48;;;2.30;;
46090;SDS011;31826;53.572;10.170;2023-09-18T14:12:35;6.30;;;2.00;;
46090;SDS011;31826;53.572;10.170;2023-09-18T14:15:05;8.70;;;2.10;;
46090;SDS011;31826;53.572;10.170;2023-09-18T14:17:32;8.40;;;2.38;;
46090;SDS011;31826;53.572;10.170;2023-09-18T14:20:03;4.65;;;2.15;;
46090;SDS011;31826;53.572;10.170;2023-09-18T14:22:32;4.72;;;1.70;;
46090;SDS011;31826;53.572;10.170;2023-09-18T14:24:58;6.90;;;1.98;;
46090;SDS011;31826;53.572;10.170;2023-09-18T14:27:24;5.37;;;1.97;;
46090;SDS011;31826;53.572;10.170;2023-09-18T14:29:50;4.40;;;1.80;;
46090;SDS011;31826;53.572;10.170;2023-09-18T14:32:15;7.78;;;2.10;;
46090;SDS011;31826;53.572;10.170;2023-09-18T14:34:41;5.00;;;1.93;;
46090;SDS011;31826;53.572;10.170;2023-09-18T14:37:07;5.50;;;1.70;;
46090;SDS011;31826;53.572;10.170;2023-09-18T14:39:34;5.05;;;2.15;;
46090;SDS011;31826;53.572;10.170;2023-09-18T14:42:00;5.97;;;1.80;;
46090;SDS011;31826;53.572;10.170;2023-09-18T14:44:25;6.22;;;1.70;;
46090;SDS011;31826;53.572;10.170;2023-09-18T14:46:55;2.83;;;1.70;;
46090;SDS011;31826;53.572;10.170;2023-09-18T14:49:21;5.25;;;1.70;;
46090;SDS011;31826;53.572;10.170;2023-09-18T14:51:47;4.93;;;2.00;;
46090;SDS011;31826;53.572;10.170;2023-09-18T14:54:14;3.92;;;1.55;;